sensor_id;sensor_type;location;lat;lon;timestamp;temperature;humidity
285;DHT22;127;48.770;9.212;2023-12-07T00:01:58;3.10;99.90
285;DHT22;127;48.770;9.212;2023-12-07T00:04:39;3.10;99.90
285;DHT22;127;48.770;9.212;2023-12-07T00:07:17;3.10;99.90
285;DHT22;127;48.770;9.212;2023-12-07T00:09:46;3.20;99.90
285;DHT22;127;48.770;9.212;2023-12-07T00:12:17;3.10;99.90
285;DHT22;127;48.770;9.212;2023-12-07T00:14:48;3.10;99.90
285;DHT22;127;48.770;9.212;2023-12-07T00:17:17;3.10;99.90
285;DHT22;127;48.770;9.212;2023-12-07T00:19:46;3.10;99.90
285;DHT22;127;48.770;9.212;2023-12-07T00:22:25;3.00;99.90
285;DHT22;127;48.770;9.212;2023-12-07T00:25:03;3.10;99.90
285;DHT22;127;48.770;9.212;2023-12-07T00:27:32;3.10;99.90
285;DHT22;127;48.770;9.212;2023-12-07T00:30:05;3.10;99.90
285;DHT22;127;48.770;9.212;2023-12-07T00:32:46;3.10;99.90
285;DHT22;127;48.770;9.212;2023-12-07T00:35:16;3.20;99.90
285;DHT22;127;48.770;9.212;2023-12-07T00:37:48;3.10;99.90
285;DHT22;127;48.770;9.212;2023-12-07T00:40:18;3.20;99.90
285;DHT22;127;48.770;9.212;2023-12-07T00:42:50;3.20;99.90
285;DHT22;127;48.770;9.212;2023-12-07T00:45:24;3.20;99.90
285;DHT22;127;48.770;9.212;2023-12-07T00:47:54;3.20;99.90
285;DHT22;127;48.770;9.212;2023-12-07T00:50:23;3.20;99.90
285;DHT22;127;48.770;9.212;2023-12-07T00:53:02;3.20;99.90
285;DHT22;127;48.770;9.212;2023-12-07T00:55:31;3.20;99.90
285;DHT22;127;48.770;9.212;2023-12-07T00:58:01;3.30;99.90
285;DHT22;127;48.770;9.212;2023-12-07T01:00:34;3.20;99.90
285;DHT22;127;48.770;9.212;2023-12-07T01:03:22;3.20;99.90
285;DHT22;127;48.770;9.212;2023-12-07T01:06:30;3.30;99.90
285;DHT22;127;48.770;9.212;2023-12-07T01:09:04;3.30;99.90
285;DHT22;127;48.770;9.212;2023-12-07T01:11:35;3.30;99.90
285;DHT22;127;48.770;9.212;2023-12-07T01:14:11;3.30;99.90
285;DHT22;127;48.770;9.212;2023-12-07T01:16:42;3.30;99.90
285;DHT22;127;48.770;9.212;2023-12-07T01:19:20;3.30;99.90
285;DHT22;127;48.770;9.212;2023-12-07T01:21:51;3.30;99.90
285;DHT22;127;48.770;9.212;2023-12-07T01:24:24;3.20;99.90
285;DHT22;127;48.770;9.212;2023-12-07T01:26:53;3.20;99.90
285;DHT22;127;48.770;9.212;2023-12-07T01:29:22;3.20;99.90
285;DHT22;127;48.770;9.212;2023-12-07T01:31:53;3.20;99.90
285;DHT22;127;48.770;9.212;2023-12-07T01:34:22;3.10;99.90
285;DHT22;127;48.770;9.212;2023-12-07T01:36:54;3.10;99.90
285;DHT22;127;48.770;9.212;2023-12-07T01:39:23;3.20;99.90
285;DHT22;127;48.770;9.212;2023-12-07T01:41:53;3.10;99.90
285;DHT22;127;48.770;9.212;2023-12-07T01:44:22;3.20;99.90
285;DHT22;127;48.770;9.212;2023-12-07T01:47:03;3.20;99.90
285;DHT22;127;48.770;9.212;2023-12-07T01:49:35;3.10;99.90
285;DHT22;127;48.770;9.212;2023-12-07T01:52:08;3.20;99.90
285;DHT22;127;48.770;9.212;2023-12-07T01:54:40;3.10;99.90
285;DHT22;127;48.770;9.212;2023-12-07T01:57:14;3.10;99.90
285;DHT22;127;48.770;9.212;2023-12-07T01:59:45;3.10;99.90
285;DHT22;127;48.770;9.212;2023-12-07T02:02:19;3.10;99.90
285;DHT22;127;48.770;9.212;2023-12-07T02:04:48;3.00;99.90
285;DHT22;127;48.770;9.212;2023-12-07T02:07:20;3.00;99.90
285;DHT22;127;48.770;9.212;2023-12-07T02:12:50;3.00;99.90
285;DHT22;127;48.770;9.212;2023-12-07T02:15:21;2.90;99.90
285;DHT22;127;48.770;9.212;2023-12-07T02:18:02;2.90;99.90
285;DHT22;127;48.770;9.212;2023-12-07T02:20:39;2.80;99.90
285;DHT22;127;48.770;9.212;2023-12-07T02:23:17;2.70;99.90
285;DHT22;127;48.770;9.212;2023-12-07T02:25:57;2.70;99.90
285;DHT22;127;48.770;9.212;2023-12-07T02:28:38;2.60;99.90
285;DHT22;127;48.770;9.212;2023-12-07T02:31:17;2.50;99.90
285;DHT22;127;48.770;9.212;2023-12-07T02:33:48;2.50;99.90
285;DHT22;127;48.770;9.212;2023-12-07T02:36:20;2.50;99.90
285;DHT22;127;48.770;9.212;2023-12-07T02:39:12;2.40;99.90
285;DHT22;127;48.770;9.212;2023-12-07T02:41:45;2.20;99.90
285;DHT22;127;48.770;9.212;2023-12-07T02:44:22;2.10;99.90
285;DHT22;127;48.770;9.212;2023-12-07T02:46:52;2.00;99.90
285;DHT22;127;48.770;9.212;2023-12-07T02:49:22;1.90;99.90
285;DHT22;127;48.770;9.212;2023-12-07T02:51:52;1.80;99.90
285;DHT22;127;48.770;9.212;2023-12-07T02:54:25;1.70;99.90
285;DHT22;127;48.770;9.212;2023-12-07T02:57:06;1.60;99.90
285;DHT22;127;48.770;9.212;2023-12-07T02:59:39;1.50;99.90
285;DHT22;127;48.770;9.212;2023-12-07T03:02:08;1.40;99.90
285;DHT22;127;48.770;9.212;2023-12-07T03:04:41;1.30;99.90
285;DHT22;127;48.770;9.212;2023-12-07T03:07:13;1.30;99.90
285;DHT22;127;48.770;9.212;2023-12-07T03:09:53;1.30;99.90
285;DHT22;127;48.770;9.212;2023-12-07T03:12:22;1.20;99.90
285;DHT22;127;48.770;9.212;2023-12-07T03:14:54;1.30;99.90
285;DHT22;127;48.770;9.212;2023-12-07T03:17:23;1.30;99.90
285;DHT22;127;48.770;9.212;2023-12-07T03:19:53;1.30;99.90
285;DHT22;127;48.770;9.212;2023-12-07T03:22:31;1.40;99.90
285;DHT22;127;48.770;9.212;2023-12-07T03:25:06;1.40;99.90
285;DHT22;127;48.770;9.212;2023-12-07T03:27:45;1.50;99.90
285;DHT22;127;48.770;9.212;2023-12-07T03:30:20;1.50;99.90
285;DHT22;127;48.770;9.212;2023-12-07T03:32:50;1.50;99.90
285;DHT22;127;48.770;9.212;2023-12-07T03:35:55;1.50;99.90
285;DHT22;127;48.770;9.212;2023-12-07T03:38:28;1.50;99.90
285;DHT22;127;48.770;9.212;2023-12-07T03:40:58;1.50;99.90
285;DHT22;127;48.770;9.212;2023-12-07T03:44:35;1.50;99.90
285;DHT22;127;48.770;9.212;2023-12-07T03:46:37;1.50;99.90
285;DHT22;127;48.770;9.212;2023-12-07T03:49:06;1.50;99.90
285;DHT22;127;48.770;9.212;2023-12-07T03:51:43;1.50;99.90
285;DHT22;127;48.770;9.212;2023-12-07T03:54:13;1.50;99.90
285;DHT22;127;48.770;9.212;2023-12-07T03:56:44;1.40;99.90
285;DHT22;127;48.770;9.212;2023-12-07T03:59:14;1.40;99.90
285;DHT22;127;48.770;9.212;2023-12-07T04:01:48;1.30;99.90
285;DHT22;127;48.770;9.212;2023-12-07T04:07:04;1.30;99.90
285;DHT22;127;48.770;9.212;2023-12-07T04:09:39;1.20;99.90
285;DHT22;127;48.770;9.212;2023-12-07T04:12:08;1.20;99.90
285;DHT22;127;48.770;9.212;2023-12-07T04:14:37;1.10;99.90
285;DHT22;127;48.770;9.212;2023-12-07T04:17:12;1.00;99.90
285;DHT22;127;48.770;9.212;2023-12-07T04:19:41;0.90;99.90
285;DHT22;127;48.770;9.212;2023-12-07T04:22:22;0.90;99.90
285;DHT22;127;48.770;9.212;2023-12-07T04:24:59;0.80;99.90
285;DHT22;127;48.770;9.212;2023-12-07T04:27:33;0.70;99.90
285;DHT22;127;48.770;9.212;2023-12-07T04:32:30;0.70;99.90
285;DHT22;127;48.770;9.212;2023-12-07T04:33:34;0.60;99.90
285;DHT22;127;48.770;9.212;2023-12-07T04:36:06;0.60;99.90
285;DHT22;127;48.770;9.212;2023-12-07T04:38:40;0.50;99.90
285;DHT22;127;48.770;9.212;2023-12-07T04:41:11;0.50;99.90
285;DHT22;127;48.770;9.212;2023-12-07T04:43:39;0.50;99.90
285;DHT22;127;48.770;9.212;2023-12-07T04:46:08;0.40;99.90
285;DHT22;127;48.770;9.212;2023-12-07T04:48:57;0.40;99.90
285;DHT22;127;48.770;9.212;2023-12-07T04:51:32;0.30;99.90
285;DHT22;127;48.770;9.212;2023-12-07T04:54:01;0.30;99.90
285;DHT22;127;48.770;9.212;2023-12-07T04:56:32;0.30;99.90
285;DHT22;127;48.770;9.212;2023-12-07T04:59:16;0.30;99.90
285;DHT22;127;48.770;9.212;2023-12-07T05:01:58;0.20;99.90
285;DHT22;127;48.770;9.212;2023-12-07T05:04:34;0.30;99.90
285;DHT22;127;48.770;9.212;2023-12-07T05:07:15;0.50;99.90
285;DHT22;127;48.770;9.212;2023-12-07T05:09:49;0.50;99.90
285;DHT22;127;48.770;9.212;2023-12-07T05:12:20;0.50;99.90
285;DHT22;127;48.770;9.212;2023-12-07T05:14:59;0.60;99.90
285;DHT22;127;48.770;9.212;2023-12-07T05:17:36;0.60;99.90
285;DHT22;127;48.770;9.212;2023-12-07T05:20:09;0.60;99.90
285;DHT22;127;48.770;9.212;2023-12-07T05:22:41;0.70;99.90
285;DHT22;127;48.770;9.212;2023-12-07T05:25:27;0.60;99.90
285;DHT22;127;48.770;9.212;2023-12-07T05:28:05;0.60;99.90
285;DHT22;127;48.770;9.212;2023-12-07T05:30:36;0.60;99.90
